(°C)
22°
22°
21°
21°
21°
22°
23°
(°C)
25°
25°
24°
23°
23°
24°
26°
SSE
S
S
SSO
SSO
SO
SO
(km/h)
4-7
4-7
4-7
3-7
3-8
4-9
5-11
(mm)
0
0
0
0
0
0
0
(%)
5
3
2
2
1
1
0

Élévation du soleil

/ -29.6°
sun-icon
UV 8
05:41
20:16
Gibbeuse décroissante (253°)
01:25
11:08

METAR pour Wilmington Manor (KILG)

Heure Conditions Température/
Point de rosée
Vent Visibilité Météo Nuages Pression Changement Brut
VFR 22.2°C / 20°C variable 0kt >10km - Clear 1012 - KILG 210451Z AUTO 00000KT 8SM CLR 22/20 A2991 RMK AO2 SLP126 T02220200 402940150
VFR 22.8°C / 20°C variable 0kt >10km - Clear 1012 - KILG 210351Z AUTO 00000KT 9SM CLR 23/20 A2990 RMK AO2 SLP123 T02280200
VFR 22.2°C / 20°C variable 0kt >10km - Clear 1012 - KILG 210251Z AUTO 00000KT 8SM CLR 22/20 A2990 RMK AO2 SLP126 T02220200 53011
VFR 22.8°C / 20°C 150º 4kt >10km - Clear 1012 - KILG 210151Z AUTO 15004KT 9SM CLR 23/20 A2990 RMK AO2 SLP123 T02280200
VFR 23.9°C / 20.6°C 150º 5kt >10km - Clear 1011 - KILG 210051Z AUTO 15005KT 10SM CLR 24/21 A2988 RMK AO2 SLP116 T02390206
VFR 25°C / 21.1°C 140º 3kt >10km - Clear 1011 - KILG 202351Z 14003KT 10SM CLR 25/21 A2987 RMK AO2 SLP115 T02500211 10289 20250 51003
VFR 25.6°C / 21.1°C 140º 5kt >10km - Clear 1011 - KILG 202251Z 14005KT 10SM CLR 26/21 A2987 RMK AO2 SLP114 T02560211
VFR 26.1°C / 21.1°C 150º 6kt >10km - Clear 1011 - KILG 202151Z 15006KT 10SM CLR 26/21 A2987 RMK AO2 SLP115 T02610211
VFR 26.1°C / 21.1°C 180º 8kt >10km - Clear 1011 - KILG 202051Z 18008KT 10SM CLR 26/21 A2986 RMK AO2 LTG DSNT NE AND E SLP112 T02610211 55003
VFR 26.7°C / 21.7°C 170º 14kt >10km - Few Clouds 4900ft
Broken Clouds 6500ft
- KILG 202006Z 17014KT 10SM FEW049 BKN065 27/22 A2986 RMK AO2 LTG DSNT NE T02670217
VFR 26.1°C / 21.1°C 180º 14kt >10km in the Vicinity Thunderstorm Vertical Visibility of 0ft.
Broken Clouds 6000ft
Broken Clouds 7500ft
1011 - KILG 201951Z 18014KT 10SM VCTS FEW047 BKN060 BKN075 26/21 A2986 RMK AO2 LTG DSNT N AND NE SLP112 T02610211
VFR 27.8°C / 19.4°C 150º 11kt >10km - Few Clouds 5500ft 1011 - KILG 201851Z 15011KT 10SM FEW055 28/19 A2987 RMK AO2 LTG DSNT NE SLP115 T02780194
VFR 27.8°C / 18.9°C 150º 12kt >10km in the Vicinity Thunderstorm Vertical Visibility of 0ft.
Few Clouds 10000ft
- KILG 201800Z 15012KT 10SM VCTS FEW075 FEW100 28/19 A2988 RMK AO2 LTG DSNT W-N T02780189
VFR 27.8°C / 17.8°C 160º 13kt Gust 21kt >10km - Few Clouds 7500ft
Few Clouds 9500ft
1011 - KILG 201751Z 16013G21KT 10SM FEW075 FEW095 28/18 A2988 RMK AO2 LTG DSNT W SLP117 60000 T02780178 10294 20194 56021
VFR 28.9°C / 17.8°C 150º 15kt >10km - Few Clouds 8500ft 1012 - KILG 201651Z 15015KT 10SM FEW085 29/18 A2989 RMK AO2 SLP121 T02890178
VFR 27.8°C / 19.4°C 150º 8kt >10km - Clear 1013 - KILG 201551Z 15008KT 10SM CLR 28/19 A2992 RMK AO2 SLP131 T02780194
VFR 24.4°C / 18.3°C 90º 4kt >10km - Overcast 6000ft 1013 - KILG 201451Z 09004KT 10SM OVC060 24/18 A2994 RMK AO2 SLP138 60000 T02440183 51008
VFR 22.8°C / 17.2°C 110º 3kt >10km 0.13mm precipitation Few Clouds 4300ft 1013 - KILG 201351Z 11003KT 10SM FEW043 23/17 A2993 RMK AO2 RAB20E30 SLP136 P0000 T02280172
VFR 21.7°C / 17.2°C variable 0kt >10km - Broken Clouds 9000ft 1013 - KILG 201251Z 00000KT 10SM BKN090 22/17 A2994 RMK AO2 SLP138 T02170172
VFR 19.4°C / 16.1°C variable 0kt >10km - Clear 1013 - KILG 201151Z 00000KT 9SM CLR 19/16 A2992 RMK AO2 SLP130 T01940161 10194 20150 51017
VFR 17.2°C / 15.6°C 100º 3kt >10km - Clear 1012 - KILG 201051Z 10003KT 9SM CLR 17/16 A2990 RMK AO2 SLP124 T01720156
VFR 16.1°C / 14.4°C 80º 3kt >10km - Clear - KILG 201021Z 08003KT 9SM CLR 16/14 A2989 RMK AO2 T01610144
VFR 15.6°C / 13.9°C 60º 3kt >10km - Clear 1012 - KILG 200951Z AUTO 06003KT 9SM CLR 16/14 A2989 RMK AO2 SLP120 T01560139
VFR 15°C / 13.9°C variable 0kt >10km - Clear 1011 - KILG 200851Z AUTO 00000KT 10SM CLR 15/14 A2987 RMK AO2 SLP113 T01500139 53012

VFR

22.2°C / 20°C

[Plus]
Vent variable 0kt
Visibilité >10km
Météo -
Nuages Clear
Pression 1012
Changement -
Brut KILG 210451Z AUTO 00000KT 8SM CLR 22/20 A2991 RMK AO2 SLP126 T02220200 402940150

VFR

22.8°C / 20°C

[Plus]
Vent variable 0kt
Visibilité >10km
Météo -
Nuages Clear
Pression 1012
Changement -
Brut KILG 210351Z AUTO 00000KT 9SM CLR 23/20 A2990 RMK AO2 SLP123 T02280200

VFR

22.2°C / 20°C

[Plus]
Vent variable 0kt
Visibilité >10km
Météo -
Nuages Clear
Pression 1012
Changement -
Brut KILG 210251Z AUTO 00000KT 8SM CLR 22/20 A2990 RMK AO2 SLP126 T02220200 53011

VFR

22.8°C / 20°C

[Plus]
Vent 150º 4kt
Visibilité >10km
Météo -
Nuages Clear
Pression 1012
Changement -
Brut KILG 210151Z AUTO 15004KT 9SM CLR 23/20 A2990 RMK AO2 SLP123 T02280200

VFR

23.9°C / 20.6°C

[Plus]
Vent 150º 5kt
Visibilité >10km
Météo -
Nuages Clear
Pression 1011
Changement -
Brut KILG 210051Z AUTO 15005KT 10SM CLR 24/21 A2988 RMK AO2 SLP116 T02390206

VFR

25°C / 21.1°C

[Plus]
Vent 140º 3kt
Visibilité >10km
Météo -
Nuages Clear
Pression 1011
Changement -
Brut KILG 202351Z 14003KT 10SM CLR 25/21 A2987 RMK AO2 SLP115 T02500211 10289 20250 51003

VFR

25.6°C / 21.1°C

[Plus]
Vent 140º 5kt
Visibilité >10km
Météo -
Nuages Clear
Pression 1011
Changement -
Brut KILG 202251Z 14005KT 10SM CLR 26/21 A2987 RMK AO2 SLP114 T02560211

VFR

26.1°C / 21.1°C

[Plus]
Vent 150º 6kt
Visibilité >10km
Météo -
Nuages Clear
Pression 1011
Changement -
Brut KILG 202151Z 15006KT 10SM CLR 26/21 A2987 RMK AO2 SLP115 T02610211

VFR

26.1°C / 21.1°C

[Plus]
Vent 180º 8kt
Visibilité >10km
Météo -
Nuages Clear
Pression 1011
Changement -
Brut KILG 202051Z 18008KT 10SM CLR 26/21 A2986 RMK AO2 LTG DSNT NE AND E SLP112 T02610211 55003

VFR

26.7°C / 21.7°C

[Plus]
Vent 170º 14kt
Visibilité >10km
Météo -
Nuages Few Clouds 4900ft
Broken Clouds 6500ft
Pression
Changement -
Brut KILG 202006Z 17014KT 10SM FEW049 BKN065 27/22 A2986 RMK AO2 LTG DSNT NE T02670217

VFR

26.1°C / 21.1°C

[Plus]
Vent 180º 14kt
Visibilité >10km
Météo in the Vicinity Thunderstorm
Nuages Vertical Visibility of 0ft.
Broken Clouds 6000ft
Broken Clouds 7500ft
Pression 1011
Changement -
Brut KILG 201951Z 18014KT 10SM VCTS FEW047 BKN060 BKN075 26/21 A2986 RMK AO2 LTG DSNT N AND NE SLP112 T02610211

VFR

27.8°C / 19.4°C

[Plus]
Vent 150º 11kt
Visibilité >10km
Météo -
Nuages Few Clouds 5500ft
Pression 1011
Changement -
Brut KILG 201851Z 15011KT 10SM FEW055 28/19 A2987 RMK AO2 LTG DSNT NE SLP115 T02780194

VFR

27.8°C / 18.9°C

[Plus]
Vent 150º 12kt
Visibilité >10km
Météo in the Vicinity Thunderstorm
Nuages Vertical Visibility of 0ft.
Few Clouds 10000ft
Pression
Changement -
Brut KILG 201800Z 15012KT 10SM VCTS FEW075 FEW100 28/19 A2988 RMK AO2 LTG DSNT W-N T02780189

VFR

27.8°C / 17.8°C

[Plus]
Vent 160º 13kt Gust 21kt
Visibilité >10km
Météo -
Nuages Few Clouds 7500ft
Few Clouds 9500ft
Pression 1011
Changement -
Brut KILG 201751Z 16013G21KT 10SM FEW075 FEW095 28/18 A2988 RMK AO2 LTG DSNT W SLP117 60000 T02780178 10294 20194 56021

VFR

28.9°C / 17.8°C

[Plus]
Vent 150º 15kt
Visibilité >10km
Météo -
Nuages Few Clouds 8500ft
Pression 1012
Changement -
Brut KILG 201651Z 15015KT 10SM FEW085 29/18 A2989 RMK AO2 SLP121 T02890178

VFR

27.8°C / 19.4°C

[Plus]
Vent 150º 8kt
Visibilité >10km
Météo -
Nuages Clear
Pression 1013
Changement -
Brut KILG 201551Z 15008KT 10SM CLR 28/19 A2992 RMK AO2 SLP131 T02780194

VFR

24.4°C / 18.3°C

[Plus]
Vent 90º 4kt
Visibilité >10km
Météo -
Nuages Overcast 6000ft
Pression 1013
Changement -
Brut KILG 201451Z 09004KT 10SM OVC060 24/18 A2994 RMK AO2 SLP138 60000 T02440183 51008

VFR

22.8°C / 17.2°C

[Plus]
Vent 110º 3kt
Visibilité >10km
Météo 0.13mm precipitation
Nuages Few Clouds 4300ft
Pression 1013
Changement -
Brut KILG 201351Z 11003KT 10SM FEW043 23/17 A2993 RMK AO2 RAB20E30 SLP136 P0000 T02280172

VFR

21.7°C / 17.2°C

[Plus]
Vent variable 0kt
Visibilité >10km
Météo -
Nuages Broken Clouds 9000ft
Pression 1013
Changement -
Brut KILG 201251Z 00000KT 10SM BKN090 22/17 A2994 RMK AO2 SLP138 T02170172

VFR

19.4°C / 16.1°C

[Plus]
Vent variable 0kt
Visibilité >10km
Météo -
Nuages Clear
Pression 1013
Changement -
Brut KILG 201151Z 00000KT 9SM CLR 19/16 A2992 RMK AO2 SLP130 T01940161 10194 20150 51017

VFR

17.2°C / 15.6°C

[Plus]
Vent 100º 3kt
Visibilité >10km
Météo -
Nuages Clear
Pression 1012
Changement -
Brut KILG 201051Z 10003KT 9SM CLR 17/16 A2990 RMK AO2 SLP124 T01720156

VFR

16.1°C / 14.4°C

[Plus]
Vent 80º 3kt
Visibilité >10km
Météo -
Nuages Clear
Pression
Changement -
Brut KILG 201021Z 08003KT 9SM CLR 16/14 A2989 RMK AO2 T01610144

VFR

15.6°C / 13.9°C

[Plus]
Vent 60º 3kt
Visibilité >10km
Météo -
Nuages Clear
Pression 1012
Changement -
Brut KILG 200951Z AUTO 06003KT 9SM CLR 16/14 A2989 RMK AO2 SLP120 T01560139

VFR

15°C / 13.9°C

[Plus]
Vent variable 0kt
Visibilité >10km
Météo -
Nuages Clear
Pression 1011
Changement -
Brut KILG 200851Z AUTO 00000KT 10SM CLR 15/14 A2987 RMK AO2 SLP113 T01500139 53012

TAF pour Wilmington Manor (KILG)

From till


From till Wind variable 3kt. Visibility 10km or more. Broken Clouds 25000ft.
Temporarly from till Visibility 9700m. Mist .
From till Wind 250º 8kt. Visibility 10km or more. Few Clouds 25000ft.
From till Wind 230º 9kt. Visibility 10km or more. Few Clouds 5000ft.
From till Wind 190º 7kt. Visibility 10km or more. Few Clouds 25000ft.

Brut: KILG 210520Z 2106/2206 VRB03KT P6SM BKN250 TEMPO 2107/2111 6SM BR FM211300 25008KT P6SM FEW250 FM211900 23009KT P6SM FEW050 FM212300 19007KT P6SM FEW250

Radar et prévision de précipitation à court terme pour Wilmington Manor

Bruine
Légère
Modéré
Fort
Très fort
Grêle

Le marqueur est placé sur Wilmington Manor. Cette animation montre le Radar des précipitations pour les dernières heures, ainsi qu'une 1h prévision. La bruine ou les légères chutes de neiges peuvent ne pas être détectées par le radar. L'intensité des précipitations est visible avec un code couleur allant du bleu clair au violet foncé et orange.

Les images satellites pour Wilmington Manor, États Unis

Le marqueur est placé sur Wilmington Manor. [Plus]

L'image satellite en temps réel combine la lumière visible pendant la journée et le rayonnement infrarouge pendant la nuit. La nuit, l'image n'est pas sombre car le rayonnement infrarouge permet de détecter les différences de température. Malheureusement, les nuages bas et le brouillard sont difficiles à distinguer des températures au sol et peuvent donc être presque invisibles pendant la nuit. Les images des satellites Météosat pour l'Europe sont mises à jour en temps réel toutes les 5 minutes. Les images GOES-16/GOES-17 (Amérique du Nord et du Sud) et Himawari (Asie) sont mises à jour toutes les 10 minutes.

Retour vers le haut